sensor_id;sensor_type;location;lat;lon;timestamp;temperature;humidity
2002;DHT22;1003;48.002;7.788;2023-02-23T00:01:23;9.80;99.90
2002;DHT22;1003;48.002;7.788;2023-02-23T00:03:54;9.80;99.90
2002;DHT22;1003;48.002;7.788;2023-02-23T00:06:23;9.80;99.90
2002;DHT22;1003;48.002;7.788;2023-02-23T00:08:52;9.90;99.90
2002;DHT22;1003;48.002;7.788;2023-02-23T00:11:21;9.90;99.90
2002;DHT22;1003;48.002;7.788;2023-02-23T00:13:49;9.80;99.90
2002;DHT22;1003;48.002;7.788;2023-02-23T00:16:19;9.90;99.90
2002;DHT22;1003;48.002;7.788;2023-02-23T00:18:48;9.80;99.90
2002;DHT22;1003;48.002;7.788;2023-02-23T00:21:19;9.80;99.90
2002;DHT22;1003;48.002;7.788;2023-02-23T00:23:49;9.80;99.90
2002;DHT22;1003;48.002;7.788;2023-02-23T00:26:18;9.70;99.90
2002;DHT22;1003;48.002;7.788;2023-02-23T00:28:47;9.70;99.90
2002;DHT22;1003;48.002;7.788;2023-02-23T00:31:16;9.80;99.90
2002;DHT22;1003;48.002;7.788;2023-02-23T00:33:43;9.80;99.90
2002;DHT22;1003;48.002;7.788;2023-02-23T00:36:12;9.70;99.90
2002;DHT22;1003;48.002;7.788;2023-02-23T00:38:40;9.80;99.90
2002;DHT22;1003;48.002;7.788;2023-02-23T00:41:09;9.80;99.90
2002;DHT22;1003;48.002;7.788;2023-02-23T00:43:39;9.80;99.90
2002;DHT22;1003;48.002;7.788;2023-02-23T00:46:14;9.70;99.90
2002;DHT22;1003;48.002;7.788;2023-02-23T00:48:43;9.70;99.90
2002;DHT22;1003;48.002;7.788;2023-02-23T00:51:11;9.70;99.90
2002;DHT22;1003;48.002;7.788;2023-02-23T00:53:39;9.60;99.90
2002;DHT22;1003;48.002;7.788;2023-02-23T00:56:08;9.60;99.90
2002;DHT22;1003;48.002;7.788;2023-02-23T00:58:37;9.60;99.90
2002;DHT22;1003;48.002;7.788;2023-02-23T01:01:05;9.60;99.90
2002;DHT22;1003;48.002;7.788;2023-02-23T01:03:33;9.60;99.90
2002;DHT22;1003;48.002;7.788;2023-02-23T01:06:06;9.70;99.90
2002;DHT22;1003;48.002;7.788;2023-02-23T01:08:37;9.70;99.90
2002;DHT22;1003;48.002;7.788;2023-02-23T01:11:09;9.70;99.90
2002;DHT22;1003;48.002;7.788;2023-02-23T01:13:38;9.80;99.90
2002;DHT22;1003;48.002;7.788;2023-02-23T01:16:08;9.80;99.90
2002;DHT22;1003;48.002;7.788;2023-02-23T01:18:39;10.00;99.90
2002;DHT22;1003;48.002;7.788;2023-02-23T01:21:14;9.90;99.90
2002;DHT22;1003;48.002;7.788;2023-02-23T01:23:43;9.80;99.90
2002;DHT22;1003;48.002;7.788;2023-02-23T01:26:15;9.70;99.90
2002;DHT22;1003;48.002;7.788;2023-02-23T01:28:46;9.70;99.90
2002;DHT22;1003;48.002;7.788;2023-02-23T01:31:14;9.70;99.90
2002;DHT22;1003;48.002;7.788;2023-02-23T01:33:43;9.70;99.90
2002;DHT22;1003;48.002;7.788;2023-02-23T01:36:11;9.60;99.90
2002;DHT22;1003;48.002;7.788;2023-02-23T01:38:38;9.70;99.90
2002;DHT22;1003;48.002;7.788;2023-02-23T01:41:06;9.70;99.90
2002;DHT22;1003;48.002;7.788;2023-02-23T01:43:33;9.60;99.90
2002;DHT22;1003;48.002;7.788;2023-02-23T01:46:02;9.50;99.90
2002;DHT22;1003;48.002;7.788;2023-02-23T01:48:32;9.50;99.90
2002;DHT22;1003;48.002;7.788;2023-02-23T01:51:07;9.50;99.90
2002;DHT22;1003;48.002;7.788;2023-02-23T01:53:41;9.60;99.90
2002;DHT22;1003;48.002;7.788;2023-02-23T01:56:16;9.60;99.90
2002;DHT22;1003;48.002;7.788;2023-02-23T01:58:49;9.50;99.90
2002;DHT22;1003;48.002;7.788;2023-02-23T02:01:18;9.60;99.90
2002;DHT22;1003;48.002;7.788;2023-02-23T02:03:49;9.60;99.90
2002;DHT22;1003;48.002;7.788;2023-02-23T02:06:24;9.60;99.90
2002;DHT22;1003;48.002;7.788;2023-02-23T02:08:55;9.60;99.90
2002;DHT22;1003;48.002;7.788;2023-02-23T02:11:25;9.50;99.90
2002;DHT22;1003;48.002;7.788;2023-02-23T02:14:03;9.50;99.90
2002;DHT22;1003;48.002;7.788;2023-02-23T02:17:05;9.50;99.90
2002;DHT22;1003;48.002;7.788;2023-02-23T02:26:48;9.50;99.90
2002;DHT22;1003;48.002;7.788;2023-02-23T02:29:44;9.60;99.90
2002;DHT22;1003;48.002;7.788;2023-02-23T02:32:54;9.60;99.90
2002;DHT22;1003;48.002;7.788;2023-02-23T02:35:53;9.60;99.90
2002;DHT22;1003;48.002;7.788;2023-02-23T02:38:50;9.60;99.90
2002;DHT22;1003;48.002;7.788;2023-02-23T02:41:31;9.60;99.90
2002;DHT22;1003;48.002;7.788;2023-02-23T02:44:07;9.60;99.90
2002;DHT22;1003;48.002;7.788;2023-02-23T02:46:45;9.60;99.90
2002;DHT22;1003;48.002;7.788;2023-02-23T02:49:21;9.60;99.90
2002;DHT22;1003;48.002;7.788;2023-02-23T02:51:59;9.60;99.90
2002;DHT22;1003;48.002;7.788;2023-02-23T02:54:36;9.60;99.90
2002;DHT22;1003;48.002;7.788;2023-02-23T02:57:05;9.60;99.90
2002;DHT22;1003;48.002;7.788;2023-02-23T02:59:42;9.60;99.90
2002;DHT22;1003;48.002;7.788;2023-02-23T03:02:27;9.60;99.90
2002;DHT22;1003;48.002;7.788;2023-02-23T03:05:16;9.60;99.90
2002;DHT22;1003;48.002;7.788;2023-02-23T03:08:08;9.60;99.90
2002;DHT22;1003;48.002;7.788;2023-02-23T03:11:03;9.60;99.90
2002;DHT22;1003;48.002;7.788;2023-02-23T03:14:01;9.50;99.90
2002;DHT22;1003;48.002;7.788;2023-02-23T03:17:03;9.50;99.90
2002;DHT22;1003;48.002;7.788;2023-02-23T03:19:58;9.40;99.90
2002;DHT22;1003;48.002;7.788;2023-02-23T03:22:57;9.40;99.90
2002;DHT22;1003;48.002;7.788;2023-02-23T03:25:53;9.40;99.90
2002;DHT22;1003;48.002;7.788;2023-02-23T03:28:51;9.30;99.90
2002;DHT22;1003;48.002;7.788;2023-02-23T03:31:46;9.30;99.90
2002;DHT22;1003;48.002;7.788;2023-02-23T03:34:40;9.30;99.90
2002;DHT22;1003;48.002;7.788;2023-02-23T03:37:33;9.30;99.90
2002;DHT22;1003;48.002;7.788;2023-02-23T03:40:25;9.20;99.90
2002;DHT22;1003;48.002;7.788;2023-02-23T03:43:16;9.20;99.90
2002;DHT22;1003;48.002;7.788;2023-02-23T03:46:07;9.20;99.90
2002;DHT22;1003;48.002;7.788;2023-02-23T03:48:56;9.20;99.90
2002;DHT22;1003;48.002;7.788;2023-02-23T03:51:48;9.20;99.90
2002;DHT22;1003;48.002;7.788;2023-02-23T03:54:40;9.20;99.90
2002;DHT22;1003;48.002;7.788;2023-02-23T03:57:30;9.10;99.90
2002;DHT22;1003;48.002;7.788;2023-02-23T04:00:20;9.10;99.90
2002;DHT22;1003;48.002;7.788;2023-02-23T04:03:15;9.10;99.90
2002;DHT22;1003;48.002;7.788;2023-02-23T04:06:02;9.00;99.90
2002;DHT22;1003;48.002;7.788;2023-02-23T04:08:50;8.90;99.90
2002;DHT22;1003;48.002;7.788;2023-02-23T04:11:40;8.90;99.90
2002;DHT22;1003;48.002;7.788;2023-02-23T04:14:35;8.90;99.90
2002;DHT22;1003;48.002;7.788;2023-02-23T04:17:06;8.80;99.90
2002;DHT22;1003;48.002;7.788;2023-02-23T04:19:35;8.80;99.90
2002;DHT22;1003;48.002;7.788;2023-02-23T04:22:02;8.80;99.90
2002;DHT22;1003;48.002;7.788;2023-02-23T04:24:29;8.70;99.90
2002;DHT22;1003;48.002;7.788;2023-02-23T04:26:56;8.70;99.90
2002;DHT22;1003;48.002;7.788;2023-02-23T04:29:23;8.60;99.90
2002;DHT22;1003;48.002;7.788;2023-02-23T04:31:50;8.60;99.90
2002;DHT22;1003;48.002;7.788;2023-02-23T04:34:18;8.50;99.90
2002;DHT22;1003;48.002;7.788;2023-02-23T04:36:46;8.50;99.90
2002;DHT22;1003;48.002;7.788;2023-02-23T04:39:15;8.40;99.90
2002;DHT22;1003;48.002;7.788;2023-02-23T04:41:42;8.40;99.90
2002;DHT22;1003;48.002;7.788;2023-02-23T04:44:09;8.30;99.90
2002;DHT22;1003;48.002;7.788;2023-02-23T04:46:36;8.30;99.90
2002;DHT22;1003;48.002;7.788;2023-02-23T04:49:03;8.30;99.90
2002;DHT22;1003;48.002;7.788;2023-02-23T04:51:30;8.30;99.90
2002;DHT22;1003;48.002;7.788;2023-02-23T04:53:59;8.30;99.90
2002;DHT22;1003;48.002;7.788;2023-02-23T04:56:26;8.30;99.90
2002;DHT22;1003;48.002;7.788;2023-02-23T04:58:54;8.30;99.90
2002;DHT22;1003;48.002;7.788;2023-02-23T05:01:21;8.30;99.90
2002;DHT22;1003;48.002;7.788;2023-02-23T05:03:48;8.30;99.90
2002;DHT22;1003;48.002;7.788;2023-02-23T05:06:16;8.30;99.90
2002;DHT22;1003;48.002;7.788;2023-02-23T05:08:43;8.30;99.90
2002;DHT22;1003;48.002;7.788;2023-02-23T05:11:12;8.40;99.90
2002;DHT22;1003;48.002;7.788;2023-02-23T05:13:39;8.40;99.90
2002;DHT22;1003;48.002;7.788;2023-02-23T05:16:07;8.40;99.90
2002;DHT22;1003;48.002;7.788;2023-02-23T05:18:34;8.40;99.90
2002;DHT22;1003;48.002;7.788;2023-02-23T05:21:02;8.50;99.90
2002;DHT22;1003;48.002;7.788;2023-02-23T05:23:30;8.50;99.90
2002;DHT22;1003;48.002;7.788;2023-02-23T05:26:01;8.60;99.90
2002;DHT22;1003;48.002;7.788;2023-02-23T05:28:32;8.60;99.90
2002;DHT22;1003;48.002;7.788;2023-02-23T05:31:01;8.60;99.90
2002;DHT22;1003;48.002;7.788;2023-02-23T05:33:29;8.60;99.90
2002;DHT22;1003;48.002;7.788;2023-02-23T05:35:56;8.60;99.90
2002;DHT22;1003;48.002;7.788;2023-02-23T05:38:23;8.60;99.90
2002;DHT22;1003;48.002;7.788;2023-02-23T05:40:51;8.60;99.90
2002;DHT22;1003;48.002;7.788;2023-02-23T05:43:18;8.60;99.90
2002;DHT22;1003;48.002;7.788;2023-02-23T05:45:47;8.60;99.90
2002;DHT22;1003;48.002;7.788;2023-02-23T05:48:14;8.60;99.90
2002;DHT22;1003;48.002;7.788;2023-02-23T05:50:41;8.70;99.90
2002;DHT22;1003;48.002;7.788;2023-02-23T05:53:08;8.70;99.90
2002;DHT22;1003;48.002;7.788;2023-02-23T05:55:35;8.60;99.90
2002;DHT22;1003;48.002;7.788;2023-02-23T05:58:02;8.60;99.90
2002;DHT22;1003;48.002;7.788;2023-02-23T06:00:30;8.50;99.90
2002;DHT22;1003;48.002;7.788;2023-02-23T06:02:58;8.50;99.90
2002;DHT22;1003;48.002;7.788;2023-02-23T06:05:25;8.40;99.90
2002;DHT22;1003;48.002;7.788;2023-02-23T06:07:52;8.40;99.90
2002;DHT22;1003;48.002;7.788;2023-02-23T06:10:19;8.30;99.90
2002;DHT22;1003;48.002;7.788;2023-02-23T06:12:47;8.30;99.90
2002;DHT22;1003;48.002;7.788;2023-02-23T06:15:14;8.30;99.90
2002;DHT22;1003;48.002;7.788;2023-02-23T06:17:41;8.30;99.90
2002;DHT22;1003;48.002;7.788;2023-02-23T06:20:10;8.30;99.90
2002;DHT22;1003;48.002;7.788;2023-02-23T06:22:39;8.30;99.90
2002;DHT22;1003;48.002;7.788;2023-02-23T06:25:07;8.30;99.90
2002;DHT22;1003;48.002;7.788;2023-02-23T06:27:37;8.30;99.90
2002;DHT22;1003;48.002;7.788;2023-02-23T06:30:05;8.30;99.90
2002;DHT22;1003;48.002;7.788;2023-02-23T06:32:33;8.30;99.90
2002;DHT22;1003;48.002;7.788;2023-02-23T06:35:00;8.30;99.90
2002;DHT22;1003;48.002;7.788;2023-02-23T06:37:29;8.40;99.90
2002;DHT22;1003;48.002;7.788;2023-02-23T06:39:56;8.40;99.90
2002;DHT22;1003;48.002;7.788;2023-02-23T06:42:24;8.40;99.90
2002;DHT22;1003;48.002;7.788;2023-02-23T06:44:51;8.40;99.90
2002;DHT22;1003;48.002;7.788;2023-02-23T06:47:18;8.40;99.90
2002;DHT22;1003;48.002;7.788;2023-02-23T06:49:45;8.50;99.90
2002;DHT22;1003;48.002;7.788;2023-02-23T06:52:13;8.40;99.90
2002;DHT22;1003;48.002;7.788;2023-02-23T06:54:42;8.40;99.90
2002;DHT22;1003;48.002;7.788;2023-02-23T06:57:10;8.40;99.90
2002;DHT22;1003;48.002;7.788;2023-02-23T06:59:37;8.40;99.90
2002;DHT22;1003;48.002;7.788;2023-02-23T07:02:05;8.40;99.90
2002;DHT22;1003;48.002;7.788;2023-02-23T07:04:32;8.50;99.90
2002;DHT22;1003;48.002;7.788;2023-02-23T07:06:59;8.50;99.90
2002;DHT22;1003;48.002;7.788;2023-02-23T07:09:27;8.60;99.90
2002;DHT22;1003;48.002;7.788;2023-02-23T07:11:55;8.70;99.90
2002;DHT22;1003;48.002;7.788;2023-02-23T07:14:22;8.70;99.90
2002;DHT22;1003;48.002;7.788;2023-02-23T07:16:50;8.80;99.90
2002;DHT22;1003;48.002;7.788;2023-02-23T07:19:17;8.90;99.90
2002;DHT22;1003;48.002;7.788;2023-02-23T07:21:44;9.00;99.90
2002;DHT22;1003;48.002;7.788;2023-02-23T07:24:11;9.10;99.90
2002;DHT22;1003;48.002;7.788;2023-02-23T07:26:38;9.10;99.90
2002;DHT22;1003;48.002;7.788;2023-02-23T07:29:10;9.20;99.90
2002;DHT22;1003;48.002;7.788;2023-02-23T07:31:38;9.20;99.90
2002;DHT22;1003;48.002;7.788;2023-02-23T07:34:07;9.30;99.90
2002;DHT22;1003;48.002;7.788;2023-02-23T07:36:34;9.30;99.90
2002;DHT22;1003;48.002;7.788;2023-02-23T07:39:02;9.30;99.90
2002;DHT22;1003;48.002;7.788;2023-02-23T07:41:30;9.40;99.90
2002;DHT22;1003;48.002;7.788;2023-02-23T07:43:58;9.50;99.90
2002;DHT22;1003;48.002;7.788;2023-02-23T07:46:26;9.60;99.90
2002;DHT22;1003;48.002;7.788;2023-02-23T07:48:54;9.60;99.90
2002;DHT22;1003;48.002;7.788;2023-02-23T07:51:21;9.60;99.90
2002;DHT22;1003;48.002;7.788;2023-02-23T07:53:48;9.60;99.90
2002;DHT22;1003;48.002;7.788;2023-02-23T07:56:15;9.60;99.90
2002;DHT22;1003;48.002;7.788;2023-02-23T07:58:43;9.70;99.90
2002;DHT22;1003;48.002;7.788;2023-02-23T08:01:11;9.80;99.90
2002;DHT22;1003;48.002;7.788;2023-02-23T08:03:40;9.80;99.90
2002;DHT22;1003;48.002;7.788;2023-02-23T08:06:14;9.90;99.90
2002;DHT22;1003;48.002;7.788;2023-02-23T08:08:42;9.90;99.90
2002;DHT22;1003;48.002;7.788;2023-02-23T08:11:09;10.00;99.90
2002;DHT22;1003;48.002;7.788;2023-02-23T08:13:37;9.90;99.90
2002;DHT22;1003;48.002;7.788;2023-02-23T08:16:04;9.90;99.90
2002;DHT22;1003;48.002;7.788;2023-02-23T08:18:32;9.90;99.90
2002;DHT22;1003;48.002;7.788;2023-02-23T08:21:01;9.90;99.90
2002;DHT22;1003;48.002;7.788;2023-02-23T08:23:30;9.90;99.90
2002;DHT22;1003;48.002;7.788;2023-02-23T08:25:57;10.00;99.90
2002;DHT22;1003;48.002;7.788;2023-02-23T08:28:25;10.00;99.90
2002;DHT22;1003;48.002;7.788;2023-02-23T08:30:53;10.10;99.90
2002;DHT22;1003;48.002;7.788;2023-02-23T08:33:20;10.10;99.90
2002;DHT22;1003;48.002;7.788;2023-02-23T08:35:47;10.20;99.90
2002;DHT22;1003;48.002;7.788;2023-02-23T08:38:16;10.20;99.90
2002;DHT22;1003;48.002;7.788;2023-02-23T08:40:43;10.40;99.90
2002;DHT22;1003;48.002;7.788;2023-02-23T08:43:10;10.50;99.90
2002;DHT22;1003;48.002;7.788;2023-02-23T08:45:37;10.70;99.90
2002;DHT22;1003;48.002;7.788;2023-02-23T08:48:04;10.90;99.90
2002;DHT22;1003;48.002;7.788;2023-02-23T08:50:32;11.00;99.90
2002;DHT22;1003;48.002;7.788;2023-02-23T08:52:59;11.10;99.90
2002;DHT22;1003;48.002;7.788;2023-02-23T08:55:27;11.30;99.90
2002;DHT22;1003;48.002;7.788;2023-02-23T08:57:54;11.50;99.90
2002;DHT22;1003;48.002;7.788;2023-02-23T09:00:22;11.70;99.90
2002;DHT22;1003;48.002;7.788;2023-02-23T09:02:49;11.90;99.90
2002;DHT22;1003;48.002;7.788;2023-02-23T09:05:17;12.00;99.90
2002;DHT22;1003;48.002;7.788;2023-02-23T09:07:45;12.10;99.90
2002;DHT22;1003;48.002;7.788;2023-02-23T09:10:16;12.20;99.90
2002;DHT22;1003;48.002;7.788;2023-02-23T09:12:46;12.50;99.90
2002;DHT22;1003;48.002;7.788;2023-02-23T09:15:13;12.50;99.90
2002;DHT22;1003;48.002;7.788;2023-02-23T09:17:40;12.60;99.90
2002;DHT22;1003;48.002;7.788;2023-02-23T09:20:10;13.00;99.90
2002;DHT22;1003;48.002;7.788;2023-02-23T09:22:40;13.10;99.90
2002;DHT22;1003;48.002;7.788;2023-02-23T09:25:13;13.20;99.90
2002;DHT22;1003;48.002;7.788;2023-02-23T09:27:42;13.40;99.90
2002;DHT22;1003;48.002;7.788;2023-02-23T09:30:12;13.60;99.90
2002;DHT22;1003;48.002;7.788;2023-02-23T09:32:43;13.90;99.90
2002;DHT22;1003;48.002;7.788;2023-02-23T09:35:10;14.30;99.90
2002;DHT22;1003;48.002;7.788;2023-02-23T09:37:38;14.30;99.90
2002;DHT22;1003;48.002;7.788;2023-02-23T09:40:07;14.10;99.90
2002;DHT22;1003;48.002;7.788;2023-02-23T09:42:40;14.40;99.90
2002;DHT22;1003;48.002;7.788;2023-02-23T09:45:22;14.30;99.90
2002;DHT22;1003;48.002;7.788;2023-02-23T09:48:08;14.20;99.90
2002;DHT22;1003;48.002;7.788;2023-02-23T09:50:39;14.20;99.90
2002;DHT22;1003;48.002;7.788;2023-02-23T09:53:29;14.10;99.90
2002;DHT22;1003;48.002;7.788;2023-02-23T09:55:59;14.10;99.90
2002;DHT22;1003;48.002;7.788;2023-02-23T09:58:31;14.20;99.90
2002;DHT22;1003;48.002;7.788;2023-02-23T10:01:39;14.10;99.90
2002;DHT22;1003;48.002;7.788;2023-02-23T10:04:25;14.30;99.90
2002;DHT22;1003;48.002;7.788;2023-02-23T10:06:59;14.50;99.90
2002;DHT22;1003;48.002;7.788;2023-02-23T10:09:48;14.50;99.90
2002;DHT22;1003;48.002;7.788;2023-02-23T10:12:29;14.50;99.90
2002;DHT22;1003;48.002;7.788;2023-02-23T10:15:09;14.40;99.90
2002;DHT22;1003;48.002;7.788;2023-02-23T10:17:54;14.60;99.90
2002;DHT22;1003;48.002;7.788;2023-02-23T10:20:36;14.60;99.90
2002;DHT22;1003;48.002;7.788;2023-02-23T10:23:14;14.60;99.90
2002;DHT22;1003;48.002;7.788;2023-02-23T10:25:48;14.60;99.90
2002;DHT22;1003;48.002;7.788;2023-02-23T10:28:19;15.20;99.90
2002;DHT22;1003;48.002;7.788;2023-02-23T10:30:49;15.50;99.90
2002;DHT22;1003;48.002;7.788;2023-02-23T10:33:23;15.30;99.90
2002;DHT22;1003;48.002;7.788;2023-02-23T10:36:09;15.50;99.90
2002;DHT22;1003;48.002;7.788;2023-02-23T10:38:41;15.80;99.90
2002;DHT22;1003;48.002;7.788;2023-02-23T10:41:08;15.80;99.90
2002;DHT22;1003;48.002;7.788;2023-02-23T10:43:37;15.90;99.90
2002;DHT22;1003;48.002;7.788;2023-02-23T10:46:06;16.00;99.90
2002;DHT22;1003;48.002;7.788;2023-02-23T10:48:45;16.00;99.90
2002;DHT22;1003;48.002;7.788;2023-02-23T10:51:17;16.20;99.90
2002;DHT22;1003;48.002;7.788;2023-02-23T10:53:47;16.20;99.90
2002;DHT22;1003;48.002;7.788;2023-02-23T10:56:16;16.10;99.90
2002;DHT22;1003;48.002;7.788;2023-02-23T10:58:47;16.00;99.90
2002;DHT22;1003;48.002;7.788;2023-02-23T11:01:30;15.80;99.90
2002;DHT22;1003;48.002;7.788;2023-02-23T11:04:12;16.00;99.90
2002;DHT22;1003;48.002;7.788;2023-02-23T11:06:44;16.20;99.90
2002;DHT22;1003;48.002;7.788;2023-02-23T11:09:22;16.40;99.90
2002;DHT22;1003;48.002;7.788;2023-02-23T11:11:55;16.70;99.90
2002;DHT22;1003;48.002;7.788;2023-02-23T11:14:24;16.50;99.90
2002;DHT22;1003;48.002;7.788;2023-02-23T11:16:54;16.90;99.90
2002;DHT22;1003;48.002;7.788;2023-02-23T11:19:30;16.90;99.90
2002;DHT22;1003;48.002;7.788;2023-02-23T11:22:02;17.10;99.90
2002;DHT22;1003;48.002;7.788;2023-02-23T11:24:34;17.10;99.90
2002;DHT22;1003;48.002;7.788;2023-02-23T11:27:03;16.80;99.90
2002;DHT22;1003;48.002;7.788;2023-02-23T11:29:34;16.50;99.90
2002;DHT22;1003;48.002;7.788;2023-02-23T11:32:07;16.70;99.90
2002;DHT22;1003;48.002;7.788;2023-02-23T11:34:39;16.60;99.90
2002;DHT22;1003;48.002;7.788;2023-02-23T11:37:18;16.70;99.90
2002;DHT22;1003;48.002;7.788;2023-02-23T11:39:53;16.50;99.90
2002;DHT22;1003;48.002;7.788;2023-02-23T11:42:22;16.50;99.90
2002;DHT22;1003;48.002;7.788;2023-02-23T11:45:02;16.60;99.90
2002;DHT22;1003;48.002;7.788;2023-02-23T11:47:32;16.50;99.90
2002;DHT22;1003;48.002;7.788;2023-02-23T11:50:06;16.60;99.90
2002;DHT22;1003;48.002;7.788;2023-02-23T11:52:46;16.40;99.90
2002;DHT22;1003;48.002;7.788;2023-02-23T11:55:17;16.30;99.90
2002;DHT22;1003;48.002;7.788;2023-02-23T11:57:45;16.30;99.90
2002;DHT22;1003;48.002;7.788;2023-02-23T12:00:22;16.40;99.90
2002;DHT22;1003;48.002;7.788;2023-02-23T12:02:55;16.60;99.90
2002;DHT22;1003;48.002;7.788;2023-02-23T12:05:28;16.70;99.90
2002;DHT22;1003;48.002;7.788;2023-02-23T12:08:01;16.30;99.90
2002;DHT22;1003;48.002;7.788;2023-02-23T12:10:36;16.20;99.90
2002;DHT22;1003;48.002;7.788;2023-02-23T12:13:15;16.10;99.90
2002;DHT22;1003;48.002;7.788;2023-02-23T12:15:57;15.90;99.90
2002;DHT22;1003;48.002;7.788;2023-02-23T12:18:40;15.90;99.90
2002;DHT22;1003;48.002;7.788;2023-02-23T12:21:22;16.00;99.90
2002;DHT22;1003;48.002;7.788;2023-02-23T12:24:09;16.00;99.90
2002;DHT22;1003;48.002;7.788;2023-02-23T12:26:47;16.20;99.90
2002;DHT22;1003;48.002;7.788;2023-02-23T12:29:22;16.50;99.90
2002;DHT22;1003;48.002;7.788;2023-02-23T12:31:59;16.60;99.90
2002;DHT22;1003;48.002;7.788;2023-02-23T12:34:32;16.50;99.90
2002;DHT22;1003;48.002;7.788;2023-02-23T12:37:18;16.70;99.90
2002;DHT22;1003;48.002;7.788;2023-02-23T12:39:57;16.80;99.90
2002;DHT22;1003;48.002;7.788;2023-02-23T12:42:39;17.00;99.90
2002;DHT22;1003;48.002;7.788;2023-02-23T12:45:20;17.30;99.90
2002;DHT22;1003;48.002;7.788;2023-02-23T12:47:58;17.50;99.90
2002;DHT22;1003;48.002;7.788;2023-02-23T12:50:34;17.40;99.90
2002;DHT22;1003;48.002;7.788;2023-02-23T12:53:11;17.10;99.90
2002;DHT22;1003;48.002;7.788;2023-02-23T12:55:55;17.30;99.90
2002;DHT22;1003;48.002;7.788;2023-02-23T12:58:38;17.40;99.90
2002;DHT22;1003;48.002;7.788;2023-02-23T13:01:13;17.60;99.90
2002;DHT22;1003;48.002;7.788;2023-02-23T13:04:31;17.20;99.90
2002;DHT22;1003;48.002;7.788;2023-02-23T13:07:42;17.30;99.90
2002;DHT22;1003;48.002;7.788;2023-02-23T13:10:31;17.20;99.90
2002;DHT22;1003;48.002;7.788;2023-02-23T13:13:19;17.20;99.90
2002;DHT22;1003;48.002;7.788;2023-02-23T13:16:00;17.20;99.90
2002;DHT22;1003;48.002;7.788;2023-02-23T13:18:39;17.30;99.90
2002;DHT22;1003;48.002;7.788;2023-02-23T13:21:15;17.30;99.90
2002;DHT22;1003;48.002;7.788;2023-02-23T13:23:55;17.30;99.90
2002;DHT22;1003;48.002;7.788;2023-02-23T13:26:35;17.00;99.90
2002;DHT22;1003;48.002;7.788;2023-02-23T13:29:16;16.90;99.90
2002;DHT22;1003;48.002;7.788;2023-02-23T13:31:59;17.10;99.90
2002;DHT22;1003;48.002;7.788;2023-02-23T13:34:29;17.00;99.90
2002;DHT22;1003;48.002;7.788;2023-02-23T13:37:03;17.00;99.90
2002;DHT22;1003;48.002;7.788;2023-02-23T13:39:58;16.90;99.90
2002;DHT22;1003;48.002;7.788;2023-02-23T13:42:43;16.90;99.90
2002;DHT22;1003;48.002;7.788;2023-02-23T13:45:39;16.70;99.90
2002;DHT22;1003;48.002;7.788;2023-02-23T13:48:23;17.00;99.90
2002;DHT22;1003;48.002;7.788;2023-02-23T13:51:00;17.40;99.90
2002;DHT22;1003;48.002;7.788;2023-02-23T13:53:39;17.50;99.90
2002;DHT22;1003;48.002;7.788;2023-02-23T13:56:10;17.20;99.90
2002;DHT22;1003;48.002;7.788;2023-02-23T13:58:47;17.30;99.90
2002;DHT22;1003;48.002;7.788;2023-02-23T14:01:20;17.30;99.90
2002;DHT22;1003;48.002;7.788;2023-02-23T14:03:53;17.10;99.90
2002;DHT22;1003;48.002;7.788;2023-02-23T14:06:24;17.10;99.90
2002;DHT22;1003;48.002;7.788;2023-02-23T14:08:58;17.10;99.90
2002;DHT22;1003;48.002;7.788;2023-02-23T14:11:45;17.10;99.90
2002;DHT22;1003;48.002;7.788;2023-02-23T14:14:39;17.00;99.90
2002;DHT22;1003;48.002;7.788;2023-02-23T14:17:38;16.70;99.90
2002;DHT22;1003;48.002;7.788;2023-02-23T14:20:17;16.70;99.90
2002;DHT22;1003;48.002;7.788;2023-02-23T14:26:14;17.10;99.90
2002;DHT22;1003;48.002;7.788;2023-02-23T14:28:45;17.10;99.90
2002;DHT22;1003;48.002;7.788;2023-02-23T14:31:31;17.10;99.90
2002;DHT22;1003;48.002;7.788;2023-02-23T14:34:05;17.00;99.90
2002;DHT22;1003;48.002;7.788;2023-02-23T14:36:42;17.20;99.90
2002;DHT22;1003;48.002;7.788;2023-02-23T14:39:16;17.30;99.90
2002;DHT22;1003;48.002;7.788;2023-02-23T14:41:51;17.30;99.90
2002;DHT22;1003;48.002;7.788;2023-02-23T14:44:24;17.10;99.90
2002;DHT22;1003;48.002;7.788;2023-02-23T14:46:56;17.20;99.90
2002;DHT22;1003;48.002;7.788;2023-02-23T14:49:31;17.10;99.90
2002;DHT22;1003;48.002;7.788;2023-02-23T14:52:05;16.90;99.90
2002;DHT22;1003;48.002;7.788;2023-02-23T14:54:37;16.80;99.90
2002;DHT22;1003;48.002;7.788;2023-02-23T14:57:13;16.50;99.90
2002;DHT22;1003;48.002;7.788;2023-02-23T14:59:50;16.40;99.90
2002;DHT22;1003;48.002;7.788;2023-02-23T15:02:22;16.60;99.90
2002;DHT22;1003;48.002;7.788;2023-02-23T15:04:50;16.60;99.90
2002;DHT22;1003;48.002;7.788;2023-02-23T15:07:20;16.50;99.90
2002;DHT22;1003;48.002;7.788;2023-02-23T15:09:56;16.50;99.90
2002;DHT22;1003;48.002;7.788;2023-02-23T15:12:28;16.50;99.90
2002;DHT22;1003;48.002;7.788;2023-02-23T15:15:02;16.40;99.90
2002;DHT22;1003;48.002;7.788;2023-02-23T15:17:37;16.50;99.90
2002;DHT22;1003;48.002;7.788;2023-02-23T15:20:15;16.10;99.90
2002;DHT22;1003;48.002;7.788;2023-02-23T15:22:46;15.80;99.90
2002;DHT22;1003;48.002;7.788;2023-02-23T15:25:20;15.60;99.90
2002;DHT22;1003;48.002;7.788;2023-02-23T15:27:49;15.50;99.90
2002;DHT22;1003;48.002;7.788;2023-02-23T15:30:19;15.40;99.90
2002;DHT22;1003;48.002;7.788;2023-02-23T15:32:58;15.40;99.90
2002;DHT22;1003;48.002;7.788;2023-02-23T15:35:28;15.20;99.90
2002;DHT22;1003;48.002;7.788;2023-02-23T15:37:57;15.00;99.90
2002;DHT22;1003;48.002;7.788;2023-02-23T15:40:26;14.80;99.90
2002;DHT22;1003;48.002;7.788;2023-02-23T15:42:56;14.50;99.90
2002;DHT22;1003;48.002;7.788;2023-02-23T15:45:30;14.30;99.90
2002;DHT22;1003;48.002;7.788;2023-02-23T15:48:07;14.20;99.90
2002;DHT22;1003;48.002;7.788;2023-02-23T15:50:44;14.10;99.90
2002;DHT22;1003;48.002;7.788;2023-02-23T15:53:22;14.00;99.90
2002;DHT22;1003;48.002;7.788;2023-02-23T15:55:56;14.10;99.90
2002;DHT22;1003;48.002;7.788;2023-02-23T15:58:30;13.90;99.90
2002;DHT22;1003;48.002;7.788;2023-02-23T16:01:09;13.60;99.90
2002;DHT22;1003;48.002;7.788;2023-02-23T16:03:43;13.50;99.90
2002;DHT22;1003;48.002;7.788;2023-02-23T16:06:23;13.40;99.90
2002;DHT22;1003;48.002;7.788;2023-02-23T16:08:56;13.30;99.90
2002;DHT22;1003;48.002;7.788;2023-02-23T16:11:24;13.30;99.90
2002;DHT22;1003;48.002;7.788;2023-02-23T16:13:52;13.30;99.90
2002;DHT22;1003;48.002;7.788;2023-02-23T16:16:20;13.20;99.90
2002;DHT22;1003;48.002;7.788;2023-02-23T16:18:53;13.20;99.90
2002;DHT22;1003;48.002;7.788;2023-02-23T16:21:28;13.10;99.90
2002;DHT22;1003;48.002;7.788;2023-02-23T16:23:57;12.90;99.90
2002;DHT22;1003;48.002;7.788;2023-02-23T16:26:29;12.80;99.90
2002;DHT22;1003;48.002;7.788;2023-02-23T16:29:01;12.60;99.90
2002;DHT22;1003;48.002;7.788;2023-02-23T16:31:40;12.50;99.90
2002;DHT22;1003;48.002;7.788;2023-02-23T16:34:23;12.40;99.90
2002;DHT22;1003;48.002;7.788;2023-02-23T16:36:56;12.30;99.90
2002;DHT22;1003;48.002;7.788;2023-02-23T16:39:26;12.20;99.90
2002;DHT22;1003;48.002;7.788;2023-02-23T16:41:55;12.10;99.90
2002;DHT22;1003;48.002;7.788;2023-02-23T16:44:25;11.90;99.90
2002;DHT22;1003;48.002;7.788;2023-02-23T16:47:08;11.80;99.90
2002;DHT22;1003;48.002;7.788;2023-02-23T16:49:39;11.60;99.90
2002;DHT22;1003;48.002;7.788;2023-02-23T16:52:16;11.50;99.90
2002;DHT22;1003;48.002;7.788;2023-02-23T16:54:44;11.40;99.90
2002;DHT22;1003;48.002;7.788;2023-02-23T16:57:19;11.30;99.90
2002;DHT22;1003;48.002;7.788;2023-02-23T16:59:50;11.10;99.90
2002;DHT22;1003;48.002;7.788;2023-02-23T17:02:18;11.10;99.90
2002;DHT22;1003;48.002;7.788;2023-02-23T17:04:48;10.90;99.90